Time;durP1;ratioP1;P1;durP2;ratioP2;P2;SDS_P1;SDS_P2;PMS_P1;PMS_P2;Temp;Humidity;BMP_temperature;BMP_pressure;BME280_temperature;BME280_humidity;BME280_pressure;Samples;Min_cycle;Max_cycle;Signal;HPM_P1;HPM_P2
2022/06/11 00:00:07;;;;;;;3.03;2.60;;;;;;;8.54;100.00;93732.69;2117769;27;20028;-84
2022/06/11 00:01:16;;;;;;;7.75;2.67;;;;;;;8.49;100.00;93743.00;2114818;28;20024;-84
2022/06/11 00:02:17;;;;;;;4.93;2.70;;;;;;;8.40;100.00;93735.41;2100496;28;20082;-84
2022/06/11 00:03:20;;;;;;;6.25;2.75;;;;;;;8.49;100.00;93743.00;2114866;28;20120;-82
2022/06/11 00:04:29;;;;;;;5.75;2.70;;;;;;;8.48;100.00;93736.91;2098332;28;20021;-82
2022/06/11 00:05:30;;;;;;;5.38;3.38;;;;;;;8.39;100.00;93736.56;2100771;28;20110;-84
2022/06/11 00:06:35;;;;;;;5.80;2.55;;;;;;;8.45;100.00;93740.34;2106524;28;20027;-83
2022/06/11 00:07:36;;;;;;;4.95;2.60;;;;;;;8.43;100.00;93737.31;2098963;28;20027;-82
2022/06/11 00:08:38;;;;;;;3.08;2.53;;;;;;;8.31;100.00;93740.34;2114010;28;20054;-83
2022/06/11 00:09:40;;;;;;;4.15;2.50;;;;;;;8.37;100.00;93738.84;2098880;28;20024;-82
2022/06/11 00:10:42;;;;;;;6.00;2.70;;;;;;;8.32;100.00;93739.22;2114569;28;20477;-84
2022/06/11 00:11:43;;;;;;;4.88;2.65;;;;;;;8.36;100.00;93739.19;2106592;28;20034;-82
2022/06/11 00:12:44;;;;;;;5.93;2.95;;;;;;;8.42;100.00;93733.09;2106360;28;20035;-82
2022/06/11 00:13:45;;;;;;;5.28;3.25;;;;;;;8.40;100.00;93746.06;2098179;28;20052;-84
2022/06/11 00:14:56;;;;;;;8.02;2.65;;;;;;;8.43;100.00;93734.66;2106570;28;20152;-83
2022/06/11 00:15:58;;;;;;;7.10;2.65;;;;;;;8.46;100.00;93735.75;2107831;28;20028;-81
2022/06/11 00:17:01;;;;;;;4.75;2.92;;;;;;;8.33;100.00;93730.81;2104601;28;20028;-83
2022/06/11 00:18:04;;;;;;;6.20;2.80;;;;;;;8.33;100.00;93736.16;2106814;28;20024;-82
2022/06/11 00:19:06;;;;;;;5.90;3.05;;;;;;;8.25;100.00;93737.34;2115011;28;20126;-82
2022/06/11 00:20:08;;;;;;;4.18;2.85;;;;;;;8.28;100.00;93735.78;2106919;28;20016;-84
2022/06/11 00:21:11;;;;;;;6.32;2.53;;;;;;;8.24;100.00;93730.47;2114731;28;20056;-82
2022/06/11 00:22:15;;;;;;;4.18;2.70;;;;;;;8.14;100.00;93731.28;2098761;28;20382;-82
2022/06/11 00:23:16;;;;;;;6.35;2.72;;;;;;;8.24;100.00;93735.78;2107226;27;20115;-83
2022/06/11 00:24:18;;;;;;;7.32;2.70;;;;;;;8.26;100.00;93725.53;2106400;28;20046;-82
2022/06/11 00:25:22;;;;;;;4.60;2.50;;;;;;;8.28;100.00;93733.13;2115291;27;20036;-84
2022/06/11 00:26:23;;;;;;;13.18;2.88;;;;;;;8.23;100.00;93734.28;2114784;28;20034;-83
2022/06/11 00:27:25;;;;;;;5.47;2.70;;;;;;;8.18;100.00;93732.03;2115041;28;20404;-82
2022/06/11 00:28:26;;;;;;;5.45;2.65;;;;;;;8.11;100.00;93731.28;2122793;27;20039;-83
2022/06/11 00:29:30;;;;;;;5.93;3.22;;;;;;;8.19;100.00;93730.13;2114676;28;20111;-83
2022/06/11 00:30:32;;;;;;;5.13;2.58;;;;;;;8.27;100.00;93736.94;2115332;27;20032;-84
2022/06/11 00:31:33;;;;;;;6.20;3.05;;;;;;;8.18;100.00;93731.25;2114889;28;20016;-83
2022/06/11 00:32:34;;;;;;;3.22;2.50;;;;;;;8.36;100.00;93739.97;2098125;28;20036;-84
2022/06/11 00:33:36;;;;;;;5.82;2.80;;;;;;;8.21;100.00;93735.81;2106523;28;20020;-83
2022/06/11 00:34:39;;;;;;;3.55;2.65;;;;;;;8.23;100.00;93736.94;2106418;28;20505;-82
2022/06/11 00:36:05;;;;;;;3.05;2.55;;;;;;;8.20;100.00;93729.72;2098473;28;20127;-83
2022/06/11 00:37:07;;;;;;;3.72;2.72;;;;;;;8.16;100.00;93734.28;2113504;27;20516;-82
2022/06/11 00:38:09;;;;;;;4.18;2.47;;;;;;;8.13;100.00;93734.31;2106744;28;20028;-83
2022/06/11 00:39:12;;;;;;;6.55;2.90;;;;;;;8.10;100.00;93735.09;2106486;28;20125;-84
2022/06/11 00:40:17;;;;;;;4.97;2.90;;;;;;;8.08;100.00;93735.47;2115076;27;20019;-85
2022/06/11 00:41:21;;;;;;;3.00;2.47;;;;;;;8.05;100.00;93738.91;2106636;28;20039;-83
2022/06/11 00:42:28;;;;;;;3.75;2.58;;;;;;;8.05;100.00;93738.91;2107444;27;20020;-84
2022/06/11 00:43:30;;;;;;;3.20;2.60;;;;;;;8.04;100.00;93727.50;2114716;28;20111;-83
2022/06/11 00:44:34;;;;;;;3.60;2.65;;;;;;;7.88;100.00;93739.69;2106385;28;20415;-82
2022/06/11 00:45:46;;;;;;;4.07;2.70;;;;;;;7.90;100.00;93737.38;2098230;28;20036;-83
2022/06/11 00:46:59;;;;;;;4.80;2.50;;;;;;;7.92;100.00;93738.53;2099474;28;20044;-84
2022/06/11 00:48:12;;;;;;;4.65;2.70;;;;;;;7.88;100.00;93740.44;2109730;27;20036;-82
2022/06/11 00:49:28;;;;;;;5.15;2.30;;;;;;;7.98;100.00;93737.00;2106300;28;20058;-84
2022/06/11 00:50:37;;;;;;;6.22;2.80;;;;;;;7.82;100.00;93732.09;2104132;27;20028;-81
2022/06/11 00:51:39;;;;;;;3.45;2.35;;;;;;;7.86;100.00;93731.31;2107437;28;20122;-83
2022/06/11 00:52:43;;;;;;;3.30;2.60;;;;;;;7.95;100.00;93735.13;2098276;28;20586;-83
2022/06/11 00:53:56;;;;;;;2.83;2.50;;;;;;;7.89;100.00;93741.19;2106228;27;20042;-83
2022/06/11 00:55:21;;;;;;;6.50;3.08;;;;;;;7.86;100.00;93724.13;2116404;27;20082;-82
2022/06/11 00:56:30;;;;;;;5.57;3.00;;;;;;;7.93;100.00;93731.31;2100939;28;20028;-82
2022/06/11 00:57:38;;;;;;;4.30;2.72;;;;;;;7.86;100.00;93734.75;2107666;28;20020;-83
2022/06/11 00:58:45;;;;;;;3.65;2.60;;;;;;;7.82;100.00;93729.44;2106193;28;20031;-83
2022/06/11 00:59:51;;;;;;;4.97;2.83;;;;;;;7.78;100.00;93733.25;2090993;28;20059;-84
2022/06/11 01:00:57;;;;;;;5.90;2.80;;;;;;;7.73;100.00;93731.72;2099102;28;20020;-82
2022/06/11 01:01:59;;;;;;;4.55;2.35;;;;;;;7.76;100.00;93724.88;2098687;28;20025;-84
2022/06/11 01:03:01;;;;;;;3.90;2.85;;;;;;;7.76;100.00;93728.28;2089865;28;20123;-82
2022/06/11 01:04:23;;;;;;;4.43;2.40;;;;;;;7.79;100.00;93724.13;2104743;28;20058;-83
2022/06/11 01:05:30;;;;;;;4.38;2.45;;;;;;;7.78;100.00;93725.25;2110573;27;20032;-82
2022/06/11 01:06:53;;;;;;;2.95;2.60;;;;;;;7.83;100.00;93722.97;2115289;27;20023;-84
2022/06/11 01:08:33;;;;;;;3.63;2.30;;;;;;;7.81;100.00;93725.25;2117560;27;20516;-84
2022/06/11 01:09:58;;;;;;;4.07;2.50;;;;;;;7.72;100.00;93727.53;2106059;28;20050;-83
2022/06/11 01:11:22;;;;;;;3.03;2.20;;;;;;;7.73;100.00;93725.66;2104249;28;20034;-84
2022/06/11 01:12:31;;;;;;;2.85;2.33;;;;;;;7.72;100.00;93724.09;2109359;28;20081;-83
2022/06/11 01:13:47;;;;;;;4.40;2.33;;;;;;;7.67;100.00;93721.84;2106920;28;20398;-82
2022/06/11 01:15:01;;;;;;;3.25;2.33;;;;;;;7.79;100.00;93726.78;2099858;28;20115;-82
2022/06/11 01:16:14;;;;;;;3.55;2.70;;;;;;;7.78;100.00;93726.00;2093074;28;20037;-84
2022/06/11 01:18:00;;;;;;;3.95;2.58;;;;;;;7.71;100.00;93725.25;2092821;28;20032;-83
2022/06/11 01:19:11;;;;;;;3.60;2.60;;;;;;;7.73;100.00;93723.00;2090982;28;20038;-82
2022/06/11 01:20:20;;;;;;;4.47;2.75;;;;;;;7.66;100.00;93720.31;2105980;28;20509;-81
2022/06/11 01:21:37;;;;;;;4.25;2.20;;;;;;;7.59;100.00;93731.72;2098676;28;20035;-82
2022/06/11 01:23:21;;;;;;;5.28;2.47;;;;;;;7.64;100.00;93722.59;2093717;28;20040;-83
2022/06/11 01:24:38;;;;;;;4.20;2.20;;;;;;;7.67;100.00;93724.50;2095658;28;20035;-83
2022/06/11 01:25:58;;;;;;;3.75;2.40;;;;;;;7.58;100.00;93725.63;2093771;28;20478;-84
2022/06/11 01:27:26;;;;;;;3.08;2.28;;;;;;;7.58;100.00;93730.97;2100237;28;20067;-82
2022/06/11 01:29:03;;;;;;;3.25;2.67;;;;;;;7.56;100.00;93727.94;2105150;27;20034;-83
2022/06/11 01:30:05;;;;;;;6.40;2.47;;;;;;;7.58;100.00;93722.22;2113625;27;20499;-83
2022/06/11 01:31:54;;;;;;;2.67;2.47;;;;;;;7.50;100.00;93731.34;2098130;28;20025;-81
2022/06/11 01:33:07;;;;;;;4.30;2.35;;;;;;;7.56;100.00;93725.28;2099239;28;20028;-83
2022/06/11 01:34:26;;;;;;;3.67;2.55;;;;;;;7.46;100.00;93730.59;2092580;28;20032;-82
2022/06/11 01:35:57;;;;;;;5.07;2.72;;;;;;;7.36;100.00;93726.03;2094530;28;20041;-82
2022/06/11 01:37:07;;;;;;;2.20;2.00;;;;;;;7.47;100.00;93722.25;2103567;28;20507;-82
2022/06/11 01:38:25;;;;;;;2.92;2.60;;;;;;;7.46;100.00;93734.03;2107108;28;20108;-83
2022/06/11 01:39:42;;;;;;;3.88;2.55;;;;;;;7.45;100.00;93729.81;2099879;28;20501;-83
2022/06/11 01:40:57;;;;;;;4.05;2.70;;;;;;;7.43;100.00;93723.38;2093454;28;20036;-81
2022/06/11 01:42:04;;;;;;;4.32;2.65;;;;;;;7.46;100.00;93722.59;2103414;28;20362;-82
2022/06/11 01:43:22;;;;;;;3.25;2.50;;;;;;;7.36;100.00;93726.78;2099302;28;20024;-84
2022/06/11 01:44:28;;;;;;;5.38;2.30;;;;;;;7.29;100.00;93726.81;2102237;28;20496;-83
2022/06/11 01:45:36;;;;;;;4.53;2.63;;;;;;;7.35;100.00;93722.63;2098854;28;20024;-83
2022/06/11 01:46:42;;;;;;;2.42;2.13;;;;;;;7.39;100.00;93722.63;2099532;28;20052;-82
2022/06/11 01:47:44;;;;;;;4.43;2.30;;;;;;;7.48;100.00;93725.66;2098855;28;20024;-83
2022/06/11 01:49:22;;;;;;;2.78;2.33;;;;;;;7.50;100.00;93721.47;2105815;28;20024;-84
2022/06/11 01:50:26;;;;;;;3.75;2.33;;;;;;;7.39;100.00;93728.69;2100726;28;20027;-83
2022/06/11 01:51:58;;;;;;;2.55;2.30;;;;;;;7.39;100.00;93730.59;2098522;28;20028;-82
2022/06/11 01:53:28;;;;;;;3.55;2.08;;;;;;;7.40;100.00;93729.47;2109432;27;20131;-81
2022/06/11 01:54:30;;;;;;;3.60;2.03;;;;;;;7.36;100.00;93724.13;2101215;28;20045;-82
2022/06/11 01:55:49;;;;;;;4.18;2.17;;;;;;;7.27;100.00;93721.09;2089375;28;20025;-83
2022/06/11 01:57:02;;;;;;;2.88;2.20;;;;;;;7.23;100.00;93723.75;2094301;28;20032;-83
2022/06/11 01:58:48;;;;;;;3.38;2.08;;;;;;;7.23;100.00;93723.75;2100808;28;20064;-82
2022/06/11 02:00:05;;;;;;;2.67;2.00;;;;;;;7.27;100.00;93726.41;2111997;28;20476;-83
2022/06/11 02:01:21;;;;;;;2.83;2.10;;;;;;;7.25;100.00;93724.13;2108009;28;20607;-82
2022/06/11 02:02:28;;;;;;;4.15;2.10;;;;;;;7.21;100.00;93722.63;2099464;28;20029;-82
2022/06/11 02:03:34;;;;;;;2.58;2.03;;;;;;;7.14;100.00;93727.91;2098289;28;20047;-82
2022/06/11 02:04:56;;;;;;;4.18;2.40;;;;;;;7.21;100.00;93715.41;2097748;28;20029;-82
2022/06/11 02:06:09;;;;;;;2.35;2.15;;;;;;;7.22;100.00;93713.50;2105646;28;20047;-83
2022/06/11 02:07:30;;;;;;;2.25;2.05;;;;;;;7.23;100.00;93715.75;2092526;28;20063;-82
2022/06/11 02:09:08;;;;;;;4.32;2.22;;;;;;;7.23;100.00;93715.75;2108485;28;20038;-82
2022/06/11 02:10:37;;;;;;;3.92;2.17;;;;;;;7.26;100.00;93715.00;2110551;28;20093;-83
2022/06/11 02:14:08;;;;;;;;;;;;;;;7.30;100.00;93725.66;2148608;27;20109;-82
2022/06/11 02:15:19;;;;;;;4.72;2.53;;;;;;;7.15;100.00;93722.22;2106273;27;19923;-82
2022/06/11 02:16:34;;;;;;;4.40;2.53;;;;;;;7.29;100.00;93724.16;2105772;28;20505;-82
2022/06/11 02:17:41;;;;;;;4.15;2.42;;;;;;;7.23;100.00;93718.41;2115960;27;20361;-81
2022/06/11 02:18:45;;;;;;;4.13;2.20;;;;;;;7.20;100.00;93719.19;2114525;27;20477;-83
2022/06/11 02:20:05;;;;;;;4.05;2.20;;;;;;;7.19;100.00;93722.97;2122421;27;20096;-82
2022/06/11 02:21:15;;;;;;;2.20;2.00;;;;;;;7.11;100.00;93726.00;2132451;27;20023;-82
2022/06/11 02:22:25;;;;;;;2.22;1.80;;;;;;;7.07;100.00;93726.78;2117387;27;20464;-83
2022/06/11 02:23:35;;;;;;;3.08;1.92;;;;;;;7.00;100.00;93718.78;2115728;27;20030;-82
2022/06/11 02:24:40;;;;;;;;;;;;;;;6.97;100.00;93718.78;2116133;27;20027;-83
2022/06/11 02:25:46;;;;;;;2.38;2.17;;;;;;;6.96;100.00;93718.03;2109971;28;19912;-83
2022/06/11 02:26:53;;;;;;;4.97;2.70;;;;;;;6.97;100.00;93716.88;2105185;28;20028;-82
2022/06/11 02:27:59;;;;;;;3.17;2.20;;;;;;;6.98;100.00;93723.72;2105386;28;20471;-83
2022/06/11 02:29:01;;;;;;;3.15;2.38;;;;;;;6.96;100.00;93719.91;2097524;28;20028;-81
2022/06/11 02:30:06;;;;;;;4.75;2.42;;;;;;;7.00;100.00;93718.03;2096468;28;20115;-81
2022/06/11 02:31:13;;;;;;;4.43;2.15;;;;;;;7.08;100.00;93716.91;2097274;28;20484;-83
2022/06/11 02:32:17;;;;;;;3.95;2.20;;;;;;;6.98;100.00;93715.75;2098061;27;20055;-83
2022/06/11 02:33:20;;;;;;;2.40;2.17;;;;;;;7.05;100.00;93720.31;2120864;28;20038;-83
2022/06/11 02:34:24;;;;;;;3.03;2.28;;;;;;;7.11;100.00;93718.03;2115352;27;20027;-83
2022/06/11 02:35:53;;;;;;;5.70;2.53;;;;;;;7.03;100.00;93715.38;2115939;28;20023;-82
2022/06/11 02:37:03;;;;;;;3.90;2.30;;;;;;;7.09;100.00;93721.06;2124100;27;20076;-83
2022/06/11 02:38:14;;;;;;;5.60;2.50;;;;;;;6.97;100.00;93719.53;2125494;27;20085;-82
2022/06/11 02:39:15;;;;;;;3.08;2.00;;;;;;;6.99;100.00;93721.81;2126652;27;20019;-83
2022/06/11 02:40:23;;;;;;;4.10;2.17;;;;;;;7.02;100.00;93718.41;2117174;27;20502;-82
2022/06/11 02:41:32;;;;;;;4.38;2.40;;;;;;;7.02;100.00;93715.75;2105453;28;20021;-82
2022/06/11 02:42:33;;;;;;;3.20;2.30;;;;;;;7.00;100.00;93716.13;2119601;28;20027;-82
2022/06/11 02:43:37;;;;;;;3.92;2.15;;;;;;;7.02;100.00;93716.53;2104527;28;20020;-82
2022/06/11 02:44:38;;;;;;;4.22;2.20;;;;;;;7.04;100.00;93714.25;2108101;28;20024;-83
2022/06/11 02:45:39;;;;;;;6.10;2.08;;;;;;;7.04;100.00;93714.25;2104347;28;20059;-83
2022/06/11 02:46:45;;;;;;;3.35;2.55;;;;;;;6.98;100.00;93709.66;2112884;28;20137;-82
2022/06/11 02:47:49;;;;;;;3.83;2.67;;;;;;;6.95;100.00;93715.75;2113378;28;20530;-82
2022/06/11 02:48:53;;;;;;;6.18;2.50;;;;;;;7.01;100.00;93716.88;2113249;28;20028;-82
2022/06/11 02:49:54;;;;;;;6.57;2.53;;;;;;;6.93;100.00;93713.44;2113168;28;20114;-82
2022/06/11 02:50:55;;;;;;;3.17;2.45;;;;;;;6.87;100.00;93709.66;2104298;28;20111;-82
2022/06/11 02:52:15;;;;;;;4.65;2.30;;;;;;;6.93;100.00;93721.41;2121349;27;20031;-82
2022/06/11 02:53:17;;;;;;;2.80;2.13;;;;;;;6.93;100.00;93713.44;2121031;28;20019;-82
2022/06/11 02:54:20;;;;;;;3.97;2.30;;;;;;;6.95;100.00;93719.16;2104730;28;20028;-82
2022/06/11 02:55:21;;;;;;;4.65;2.30;;;;;;;6.86;100.00;93716.09;2099511;28;20036;-82
2022/06/11 02:56:23;;;;;;;3.58;2.38;;;;;;;6.81;100.00;93713.81;2099915;28;20024;-82
2022/06/11 02:57:27;;;;;;;3.65;2.45;;;;;;;6.93;100.00;93712.69;2096047;28;20047;-82
2022/06/11 02:58:28;;;;;;;4.35;2.65;;;;;;;6.94;100.00;93716.88;2101511;28;20048;-82
2022/06/11 02:59:29;;;;;;;3.60;2.60;;;;;;;6.92;100.00;93714.59;2098031;28;20032;-82
2022/06/11 03:00:34;;;;;;;4.10;2.20;;;;;;;6.96;100.00;93720.69;2104228;28;20024;-82
2022/06/11 03:01:36;;;;;;;3.85;2.70;;;;;;;6.95;100.00;93721.06;2105311;28;20020;-82
2022/06/11 03:02:37;;;;;;;2.67;2.17;;;;;;;6.90;100.00;93716.13;2112903;27;20560;-82
2022/06/11 03:03:38;;;;;;;3.80;2.63;;;;;;;6.85;100.00;93719.13;2109123;28;20664;-82
2022/06/11 03:04:40;;;;;;;4.68;2.30;;;;;;;6.88;100.00;93721.03;2104244;28;20085;-82
2022/06/11 03:05:41;;;;;;;6.28;2.38;;;;;;;6.86;100.00;93718.00;2104198;28;20127;-82
2022/06/11 03:06:43;;;;;;;3.55;2.40;;;;;;;6.80;100.00;93722.91;2112442;28;20024;-82
2022/06/11 03:07:44;;;;;;;4.45;2.20;;;;;;;6.72;100.00;93713.44;2112810;27;20096;-83
2022/06/11 03:08:45;;;;;;;3.25;2.33;;;;;;;6.73;100.00;93714.94;2108185;28;20103;-82
2022/06/11 03:09:46;;;;;;;4.47;1.92;;;;;;;6.72;100.00;93714.19;2104162;28;20020;-82
2022/06/11 03:10:54;;;;;;;4.20;2.40;;;;;;;6.81;100.00;93719.13;2104187;28;20046;-82
2022/06/11 03:11:56;;;;;;;5.28;2.22;;;;;;;6.84;100.00;93715.72;2112475;28;20024;-82
2022/06/11 03:12:58;;;;;;;3.10;2.50;;;;;;;6.83;100.00;93708.88;2104153;28;20032;-82
2022/06/11 03:13:59;;;;;;;4.18;2.35;;;;;;;6.88;100.00;93716.47;2112577;28;20523;-81
2022/06/11 03:15:00;;;;;;;3.92;2.53;;;;;;;6.88;100.00;93713.81;2112609;28;20500;-83
2022/06/11 03:16:01;;;;;;;4.82;2.45;;;;;;;6.92;100.00;93721.81;2104186;28;20028;-81
2022/06/11 03:17:03;;;;;;;3.78;2.08;;;;;;;6.87;100.00;93717.63;2112551;28;20028;-82
2022/06/11 03:18:04;;;;;;;3.17;2.00;;;;;;;6.87;100.00;93722.94;2104172;28;20486;-82
2022/06/11 03:19:07;;;;;;;3.13;2.17;;;;;;;6.65;100.00;93724.03;2104146;28;20020;-84
2022/06/11 03:20:09;;;;;;;4.88;2.10;;;;;;;6.71;100.00;93717.19;2104318;28;20028;-83
2022/06/11 03:21:11;;;;;;;3.30;2.33;;;;;;;6.69;100.00;93719.47;2104555;28;20461;-82
2022/06/11 03:22:12;;;;;;;4.10;2.20;;;;;;;6.80;100.00;93721.03;2103978;28;20021;-82
2022/06/11 03:23:13;;;;;;;2.63;2.20;;;;;;;6.77;100.00;93731.66;2112609;28;20019;-83
2022/06/11 03:24:14;;;;;;;3.08;2.35;;;;;;;6.77;100.00;93713.06;2103804;28;20462;-82
2022/06/11 03:25:16;;;;;;;2.83;1.95;;;;;;;6.74;100.00;93719.09;2097918;28;20024;-82
2022/06/11 03:26:18;;;;;;;2.33;1.92;;;;;;;6.80;100.00;93726.34;2098361;28;20029;-83
2022/06/11 03:27:19;;;;;;;3.50;2.30;;;;;;;6.78;100.00;93725.19;2098740;28;20032;-83
2022/06/11 03:28:25;;;;;;;2.42;2.20;;;;;;;6.75;100.00;93733.91;2104570;28;20030;-81
2022/06/11 03:29:26;;;;;;;2.70;2.20;;;;;;;6.80;100.00;93730.88;2098916;28;20025;-83
2022/06/11 03:30:28;;;;;;;3.47;2.35;;;;;;;6.78;100.00;93730.50;2096154;28;20115;-81
2022/06/11 03:31:29;;;;;;;4.53;2.53;;;;;;;6.76;100.00;93728.25;2098299;28;20600;-82
2022/06/11 03:32:30;;;;;;;4.68;2.10;;;;;;;6.77;100.00;93732.41;2100669;28;20074;-83
2022/06/11 03:33:34;;;;;;;2.60;2.10;;;;;;;6.73;100.00;93728.97;2114577;28;20015;-82
2022/06/11 03:34:36;;;;;;;2.20;2.00;;;;;;;6.75;100.00;93739.22;2111589;28;20113;-83
2022/06/11 03:35:38;;;;;;;2.63;2.10;;;;;;;6.73;100.00;93728.22;2101020;28;20053;-82
2022/06/11 03:36:40;;;;;;;3.45;2.45;;;;;;;6.72;100.00;93734.69;2103052;28;20036;-82
2022/06/11 03:37:41;;;;;;;5.35;2.55;;;;;;;6.68;100.00;93728.59;2106705;28;20040;-82
2022/06/11 03:38:44;;;;;;;2.25;1.95;;;;;;;6.69;100.00;93736.19;2098403;28;20631;-83
2022/06/11 03:39:45;;;;;;;4.78;2.38;;;;;;;6.72;100.00;93727.47;2098418;28;20115;-82
2022/06/11 03:40:46;;;;;;;3.50;2.00;;;;;;;6.70;100.00;93728.97;2106557;28;20110;-83
2022/06/11 03:41:48;;;;;;;5.10;2.08;;;;;;;6.81;100.00;93711.16;2106573;28;20019;-82
2022/06/11 03:42:50;;;;;;;2.67;2.20;;;;;;;6.79;100.00;93708.88;2098224;28;20029;-82
2022/06/11 03:43:52;;;;;;;3.55;2.22;;;;;;;6.82;100.00;93712.69;2098558;28;20541;-83
2022/06/11 03:44:54;;;;;;;4.55;1.98;;;;;;;6.76;100.00;93709.63;2106863;28;20032;-83
2022/06/11 03:45:58;;;;;;;7.65;2.13;;;;;;;6.80;100.00;93715.72;2106467;28;20482;-81
2022/06/11 03:46:59;;;;;;;3.55;2.17;;;;;;;6.78;100.00;93709.25;2101063;27;20056;-82
2022/06/11 03:48:00;;;;;;;4.00;2.28;;;;;;;6.83;100.00;93706.22;2115125;28;20456;-82
2022/06/11 03:49:00;;;;;;;2.80;2.00;;;;;;;6.82;100.00;93712.69;2099972;28;20031;-82
2022/06/11 03:50:03;;;;;;;2.70;2.10;;;;;;;6.87;100.00;93717.63;2098461;28;20024;-83
2022/06/11 03:51:06;;;;;;;3.55;2.15;;;;;;;6.85;100.00;93716.47;2090449;28;20377;-82
2022/06/11 03:52:08;;;;;;;3.70;2.33;;;;;;;6.78;100.00;93717.97;2098749;28;20032;-83
2022/06/11 03:53:11;;;;;;;4.63;2.25;;;;;;;6.83;100.00;93719.50;2098429;28;20025;-82
2022/06/11 03:54:43;;;;;;;3.28;2.22;;;;;;;6.79;100.00;93719.50;2106836;28;20402;-84
2022/06/11 03:55:44;;;;;;;3.83;1.80;;;;;;;6.79;100.00;93719.50;2106523;28;20469;-82
2022/06/11 03:56:48;;;;;;;2.45;1.92;;;;;;;6.83;100.00;93719.50;2098359;28;20024;-82
2022/06/11 03:57:49;;;;;;;4.00;2.05;;;;;;;6.81;100.00;93722.56;2115413;27;20023;-82
2022/06/11 03:58:50;;;;;;;2.08;1.77;;;;;;;6.83;100.00;93722.16;2103583;28;20020;-83
2022/06/11 03:59:51;;;;;;;5.18;2.45;;;;;;;6.88;100.00;93716.47;2105590;28;20028;-83
2022/06/11 04:02:12;;;;;;;3.00;2.03;;;;;;;7.00;100.00;93726.00;2111849;27;20077;-82
2022/06/11 04:03:15;;;;;;;2.40;2.00;;;;;;;6.97;100.00;93716.88;2106592;28;20054;-83
2022/06/11 04:04:19;;;;;;;3.97;1.80;;;;;;;6.97;100.00;93724.84;2106500;28;20099;-83
2022/06/11 04:05:20;;;;;;;2.97;2.15;;;;;;;6.96;100.00;93731.31;2098644;28;20121;-82
2022/06/11 04:06:34;;;;;;;4.80;2.10;;;;;;;7.00;100.00;93732.06;2098097;28;20027;-82
2022/06/11 04:07:36;;;;;;;3.05;1.88;;;;;;;6.99;100.00;93727.91;2108249;28;20016;-81
2022/06/11 04:08:38;;;;;;;4.40;2.10;;;;;;;7.01;100.00;93730.94;2112834;28;20026;-83
2022/06/11 04:09:42;;;;;;;2.13;1.83;;;;;;;6.95;100.00;93729.03;2098514;28;20032;-82
2022/06/11 04:10:44;;;;;;;3.10;1.75;;;;;;;6.96;100.00;93727.88;2106883;28;20463;-83
2022/06/11 04:11:46;;;;;;;2.47;2.10;;;;;;;6.99;100.00;93735.13;2106830;28;20105;-84
2022/06/11 04:12:47;;;;;;;3.28;1.92;;;;;;;7.01;100.00;93730.94;2114542;28;20016;-82
2022/06/11 04:13:50;;;;;;;3.75;1.60;;;;;;;7.05;100.00;93728.28;2114801;28;20031;-83
2022/06/11 04:14:51;;;;;;;2.95;1.77;;;;;;;7.10;100.00;93725.25;2106661;28;20024;-82
2022/06/11 04:15:57;;;;;;;4.78;2.05;;;;;;;7.12;100.00;93732.88;2092871;28;20032;-83
2022/06/11 04:17:04;;;;;;;3.13;2.10;;;;;;;7.11;100.00;93728.66;2098671;28;20028;-83
2022/06/11 04:18:06;;;;;;;2.63;2.10;;;;;;;7.11;100.00;93726.00;2098864;28;20039;-82
2022/06/11 04:19:11;;;;;;;2.63;1.70;;;;;;;7.11;100.00;93728.66;2089901;28;20118;-83
2022/06/11 04:20:14;;;;;;;3.17;1.90;;;;;;;7.15;100.00;93724.88;2082821;28;20052;-83
2022/06/11 04:21:17;;;;;;;1.75;1.65;;;;;;;7.16;100.00;93730.97;2090054;28;20024;-82
2022/06/11 04:22:19;;;;;;;2.58;2.15;;;;;;;7.14;100.00;93727.91;2089892;28;20386;-82
2022/06/11 04:23:24;;;;;;;5.05;1.80;;;;;;;7.22;100.00;93737.41;2098119;28;20367;-83
2022/06/11 04:24:28;;;;;;;3.88;2.20;;;;;;;7.23;100.00;93734.38;2082614;28;20029;-82
2022/06/11 04:25:29;;;;;;;3.30;2.13;;;;;;;7.27;100.00;93734.38;2082240;28;20108;-83
2022/06/11 04:26:38;;;;;;;2.63;2.08;;;;;;;7.28;100.00;93734.00;2081733;28;20026;-82
2022/06/11 04:27:41;;;;;;;4.00;2.20;;;;;;;7.35;100.00;93735.16;2083695;28;20120;-81
2022/06/11 04:28:43;;;;;;;2.83;2.30;;;;;;;7.37;100.00;93728.31;2090037;28;20109;-83
2022/06/11 04:29:49;;;;;;;2.70;1.77;;;;;;;7.41;100.00;93736.28;2099807;28;20420;-83
2022/06/11 04:30:51;;;;;;;2.65;2.10;;;;;;;7.44;100.00;93736.28;2106338;28;20020;-83
2022/06/11 04:31:55;;;;;;;4.38;2.00;;;;;;;7.46;100.00;93738.56;2097954;28;20074;-84
2022/06/11 04:32:57;;;;;;;3.75;2.00;;;;;;;7.50;100.00;93740.09;2098729;28;20016;-82
2022/06/11 04:33:59;;;;;;;2.78;2.00;;;;;;;7.49;100.00;93745.78;2106228;28;20521;-82
2022/06/11 04:35:01;;;;;;;4.63;1.85;;;;;;;7.54;100.00;93748.06;2104810;28;20734;-82
2022/06/11 04:36:05;;;;;;;4.05;2.50;;;;;;;7.55;100.00;93746.91;2106052;28;20031;-83
2022/06/11 04:37:08;;;;;;;4.63;2.15;;;;;;;7.59;100.00;93742.38;2106229;28;20028;-82
2022/06/11 04:38:09;;;;;;;2.83;2.22;;;;;;;7.62;100.00;93738.94;2106952;28;20054;-82
2022/06/11 04:39:13;;;;;;;2.80;2.00;;;;;;;7.67;100.00;93737.81;2114693;28;20125;-83
2022/06/11 04:40:17;;;;;;;4.65;2.30;;;;;;;7.67;100.00;93735.91;2106770;28;20035;-82
2022/06/11 04:41:20;;;;;;;3.88;2.30;;;;;;;7.72;100.00;93727.53;2098840;28;20119;-83
2022/06/11 04:42:22;;;;;;;3.58;2.00;;;;;;;7.73;100.00;93734.38;2093217;28;20020;-82
2022/06/11 04:43:23;;;;;;;4.43;2.33;;;;;;;7.78;100.00;93739.31;2106340;28;20107;-81
2022/06/11 04:44:25;;;;;;;3.20;1.88;;;;;;;7.82;100.00;93734.00;2114671;28;20476;-81
2022/06/11 04:45:27;;;;;;;2.92;2.45;;;;;;;7.87;100.00;93730.94;2105869;28;20717;-82
2022/06/11 04:46:28;;;;;;;3.67;2.60;;;;;;;7.89;100.00;93728.66;2081364;28;20021;-81
2022/06/11 04:47:31;;;;;;;6.72;2.38;;;;;;;7.94;100.00;93735.50;2098085;28;20413;-83
2022/06/11 04:48:32;;;;;;;4.82;2.28;;;;;;;7.98;100.00;93733.59;2106277;28;20031;-83
2022/06/11 04:49:33;;;;;;;4.53;2.10;;;;;;;8.02;100.00;93737.00;2097847;28;20024;-82
2022/06/11 04:50:35;;;;;;;4.40;2.58;;;;;;;8.03;100.00;93739.28;2097632;28;20060;-83
2022/06/11 04:51:37;;;;;;;3.20;2.20;;;;;;;8.05;100.00;93734.34;2089771;28;20079;-82
2022/06/11 04:52:38;;;;;;;3.58;2.35;;;;;;;8.09;100.00;93742.31;2089844;28;20032;-83
2022/06/11 04:53:42;;;;;;;4.70;2.20;;;;;;;8.13;100.00;93740.41;2089518;28;20035;-83
2022/06/11 04:54:43;;;;;;;2.50;2.13;;;;;;;8.18;100.00;93736.59;2089865;28;20025;-83
2022/06/11 04:55:45;;;;;;;5.38;2.35;;;;;;;8.23;100.00;93746.84;2089428;28;20043;-83
2022/06/11 04:56:53;;;;;;;5.32;1.92;;;;;;;8.29;100.00;93739.97;2106143;28;20099;-82
2022/06/11 04:57:55;;;;;;;4.53;2.25;;;;;;;8.34;100.00;93747.59;2090350;28;20059;-83
2022/06/11 04:58:57;;;;;;;3.75;2.35;;;;;;;8.39;100.00;93741.88;2098391;28;20070;-82
2022/06/11 04:59:59;;;;;;;3.35;2.40;;;;;;;8.45;100.00;93736.91;2106271;28;20074;-81
2022/06/11 05:01:00;;;;;;;3.72;2.53;;;;;;;8.50;100.00;93742.59;2098066;28;20035;-82
2022/06/11 05:02:03;;;;;;;3.85;2.03;;;;;;;8.54;100.00;93734.59;2097987;28;20421;-82
2022/06/11 05:03:05;;;;;;;3.35;2.60;;;;;;;8.57;100.00;93745.25;2098979;28;20024;-83
2022/06/11 05:04:07;;;;;;;4.32;2.47;;;;;;;8.63;100.00;93739.50;2081662;28;20033;-84
2022/06/11 05:05:09;;;;;;;5.43;2.70;;;;;;;8.69;100.00;93743.28;2089391;28;20108;-82
2022/06/11 05:06:14;;;;;;;5.22;2.40;;;;;;;8.71;100.00;93739.09;2089586;28;20057;-81
2022/06/11 05:07:15;;;;;;;5.18;2.50;;;;;;;8.77;100.00;93736.75;2097535;28;20074;-82
2022/06/11 05:08:16;;;;;;;4.97;2.70;;;;;;;8.85;100.00;93740.16;2081344;28;20418;-81
2022/06/11 05:09:20;;;;;;;7.10;2.70;;;;;;;8.87;100.00;93738.63;2089594;28;20033;-83
2022/06/11 05:10:21;;;;;;;6.25;2.38;;;;;;;8.89;100.00;93741.66;2090031;28;20093;-82
2022/06/11 05:11:22;;;;;;;4.40;2.28;;;;;;;8.95;100.00;93736.66;2106079;28;20149;-83
2022/06/11 05:12:23;;;;;;;8.90;2.55;;;;;;;9.02;100.00;93736.66;2097611;28;20428;-82
2022/06/11 05:13:25;;;;;;;11.73;2.60;;;;;;;9.09;100.00;93741.94;2097438;28;20564;-83
2022/06/11 05:14:26;;;;;;;8.90;2.63;;;;;;;9.15;100.00;93739.63;2106028;28;20401;-83
2022/06/11 05:15:29;;;;;;;7.05;2.40;;;;;;;9.18;100.00;93744.94;2089454;28;20127;-83
2022/06/11 05:16:30;;;;;;;7.32;2.50;;;;;;;9.25;100.00;93746.78;2089742;28;20025;-83
2022/06/11 05:18:01;;;;;;;9.75;2.60;;;;;;;9.32;100.00;93746.75;2105825;28;20020;-83